createdAt,value
2017-05-07T00:02:08.455Z,80.96
2017-05-07T00:04:39.308Z,81.20
2017-05-07T00:07:10.077Z,80.95
2017-05-07T00:09:41.882Z,81.20
2017-05-07T00:12:13.635Z,81.07
2017-05-07T00:14:44.432Z,80.83
2017-05-07T00:17:19.273Z,81.32
2017-05-07T00:19:50.178Z,81.78
2017-05-07T00:22:20.960Z,81.76
2017-05-07T00:24:51.858Z,81.83
2017-05-07T00:27:22.649Z,81.92
2017-05-07T00:29:54.207Z,82.09
2017-05-07T00:32:26.059Z,82.14
2017-05-07T00:34:57.814Z,81.89
2017-05-07T00:37:28.608Z,82.02
2017-05-07T00:39:59.460Z,82.14
2017-05-07T00:42:31.126Z,82.10
2017-05-07T00:45:02.860Z,82.03
2017-05-07T00:47:33.642Z,82.23
2017-05-07T00:50:04.481Z,82.07
2017-05-07T00:52:35.268Z,81.76
2017-05-07T00:55:06.169Z,81.70
2017-05-07T00:57:36.955Z,81.97
2017-05-07T01:00:07.852Z,82.61
2017-05-07T01:02:38.772Z,82.96
2017-05-07T01:05:09.579Z,82.91
2017-05-07T01:07:40.447Z,82.47
2017-05-07T01:10:11.219Z,82.17
2017-05-07T01:12:42.979Z,82.41
2017-05-07T01:15:13.747Z,82.76
2017-05-07T01:17:44.749Z,83.31
2017-05-07T01:20:15.528Z,83.73
2017-05-07T01:22:47.911Z,83.27
2017-05-07T01:25:18.700Z,83.12
2017-05-07T01:27:49.543Z,82.83
2017-05-07T01:30:20.400Z,83.35
2017-05-07T01:32:51.179Z,83.26
2017-05-07T01:35:22.067Z,83.07
2017-05-07T01:37:52.842Z,82.89
2017-05-07T01:40:23.787Z,82.51
2017-05-07T01:42:54.659Z,82.75
2017-05-07T01:45:25.583Z,82.98
2017-05-07T01:47:56.831Z,83.05
2017-05-07T01:50:27.671Z,83.36
2017-05-07T01:52:58.555Z,83.41
2017-05-07T01:55:29.329Z,82.91
2017-05-07T01:58:00.163Z,83.05
2017-05-07T02:00:30.958Z,83.09
2017-05-07T02:03:01.899Z,82.91
2017-05-07T02:05:32.683Z,82.89
2017-05-07T02:08:03.500Z,82.83
2017-05-07T02:10:35.151Z,82.70
2017-05-07T02:13:06.021Z,82.75
2017-05-07T02:15:36.927Z,82.82
2017-05-07T02:18:07.759Z,82.94
2017-05-07T02:20:38.601Z,83.01
2017-05-07T02:23:09.389Z,82.92
2017-05-07T02:25:40.295Z,82.86
2017-05-07T02:28:11.070Z,82.71
2017-05-07T02:30:41.917Z,82.55
2017-05-07T02:33:12.739Z,82.37
2017-05-07T02:35:43.524Z,82.67
2017-05-07T02:38:15.304Z,82.83
2017-05-07T02:40:46.119Z,82.70
2017-05-07T02:43:17.854Z,82.23
2017-05-07T02:45:48.678Z,82.32
2017-05-07T02:48:19.467Z,82.61
2017-05-07T02:50:51.632Z,82.46
2017-05-07T02:53:22.551Z,82.55
2017-05-07T02:55:53.394Z,82.62
2017-05-07T02:58:24.267Z,82.51
2017-05-07T03:00:55.143Z,82.64
2017-05-07T03:03:26.996Z,82.94
2017-05-07T03:05:57.843Z,82.94
2017-05-07T03:08:28.631Z,83.05
2017-05-07T03:10:59.641Z,83.47
2017-05-07T03:13:30.483Z,83.57
2017-05-07T03:16:02.236Z,83.60
2017-05-07T03:18:33.067Z,83.59
2017-05-07T03:21:03.912Z,83.63
2017-05-07T03:23:34.716Z,83.73
2017-05-07T03:26:05.567Z,83.73
2017-05-07T03:28:36.389Z,83.86
2017-05-07T03:31:07.352Z,84.28
2017-05-07T03:33:38.139Z,84.66
2017-05-07T03:36:08.988Z,84.50
2017-05-07T03:38:39.783Z,84.82
2017-05-07T03:41:10.625Z,84.88
2017-05-07T03:43:42.348Z,84.79
2017-05-07T03:46:13.183Z,85.01
2017-05-07T03:48:43.628Z,84.59
2017-05-07T03:51:14.507Z,84.28
2017-05-07T03:53:45.286Z,84.45
2017-05-07T03:56:16.172Z,84.76
2017-05-07T03:58:46.975Z,85.34
2017-05-07T04:01:18.168Z,85.58
2017-05-07T04:03:49.084Z,85.43
2017-05-07T04:06:21.296Z,85.36
2017-05-07T04:08:52.114Z,85.70
2017-05-07T04:11:22.895Z,85.57
2017-05-07T04:13:53.731Z,85.38
2017-05-07T04:16:24.687Z,85.20
2017-05-07T04:18:55.582Z,85.16
2017-05-07T04:21:26.581Z,85.12
2017-05-07T04:23:57.442Z,85.23
2017-05-07T04:26:29.187Z,84.52
2017-05-07T04:28:59.955Z,84.88
2017-05-07T04:31:30.790Z,85.23
2017-05-07T04:34:01.582Z,85.27
2017-05-07T04:36:32.407Z,85.16
2017-05-07T04:39:03.090Z,84.81
2017-05-07T04:41:34.214Z,84.88
2017-05-07T04:44:04.998Z,85.11
2017-05-07T04:46:36.776Z,85.18
2017-05-07T04:49:07.605Z,85.26
2017-05-07T04:51:38.473Z,85.79
2017-05-07T04:54:09.349Z,85.84
2017-05-07T04:56:40.122Z,85.92
2017-05-07T04:59:11.040Z,85.98
2017-05-07T05:01:41.838Z,85.64
2017-05-07T05:04:12.729Z,85.21
2017-05-07T05:06:43.509Z,85.25
2017-05-07T05:09:14.356Z,85.23
2017-05-07T05:11:45.176Z,85.41
2017-05-07T05:14:16.081Z,85.55
2017-05-07T05:16:46.867Z,85.47
2017-05-07T05:19:32.334Z,85.79
2017-05-07T05:25:18.094Z,85.90
2017-05-07T05:28:21.187Z,85.50
2017-05-07T05:31:03.867Z,85.32
2017-05-07T05:33:35.771Z,85.22
2017-05-07T05:36:09.878Z,85.31
2017-05-07T05:38:43.613Z,85.83
2017-05-07T05:41:16.047Z,85.95
2017-05-07T05:43:47.577Z,85.31
2017-05-07T05:46:19.517Z,85.14
2017-05-07T05:48:51.216Z,84.48
2017-05-07T05:51:22.406Z,84.72
2017-05-07T05:53:54.114Z,84.76
2017-05-07T05:56:26.012Z,84.55
2017-05-07T05:58:59.367Z,84.27
2017-05-07T06:01:32.337Z,84.18
2017-05-07T06:04:04.731Z,83.19
2017-05-07T06:06:36.044Z,82.57
2017-05-07T06:09:07.425Z,82.85
2017-05-07T06:11:38.594Z,83.39
2017-05-07T06:14:10.131Z,82.99
2017-05-07T06:16:41.108Z,83.12
2017-05-07T06:19:12.348Z,83.56
2017-05-07T06:21:43.245Z,83.48
2017-05-07T06:24:14.169Z,83.29
2017-05-07T06:26:45.445Z,83.13
2017-05-07T06:29:16.781Z,82.96
2017-05-07T06:31:48.388Z,82.89
2017-05-07T06:34:19.806Z,82.83
2017-05-07T06:36:51.534Z,82.60
2017-05-07T06:39:23.082Z,82.46
2017-05-07T06:41:54.778Z,82.35
2017-05-07T06:44:26.545Z,82.23
2017-05-07T06:46:57.404Z,81.18
2017-05-07T06:49:28.353Z,80.63
2017-05-07T06:51:59.209Z,81.10
2017-05-07T06:54:30.033Z,81.24
2017-05-07T06:57:00.922Z,81.19
2017-05-07T06:59:31.748Z,80.87
2017-05-07T07:02:02.630Z,80.67
2017-05-07T07:04:33.753Z,80.27
2017-05-07T07:07:04.268Z,80.10
2017-05-07T07:09:34.674Z,79.73
2017-05-07T07:12:05.673Z,79.49
2017-05-07T07:14:36.538Z,79.21
2017-05-07T07:17:08.250Z,78.96
2017-05-07T07:19:39.216Z,78.90
2017-05-07T07:22:10.106Z,78.52
2017-05-07T07:24:40.950Z,78.40
2017-05-07T07:27:12.277Z,78.27
2017-05-07T07:29:43.512Z,77.02
2017-05-07T07:32:14.372Z,76.91
2017-05-07T07:34:45.205Z,77.03
2017-05-07T07:37:16.163Z,76.89
2017-05-07T07:39:47.127Z,76.34
2017-05-07T07:42:17.983Z,75.99
2017-05-07T07:44:48.813Z,75.56
2017-05-07T07:47:19.492Z,74.54
2017-05-07T07:49:50.326Z,75.12
2017-05-07T07:52:21.223Z,75.60
2017-05-07T07:54:52.048Z,75.68
2017-05-07T07:57:22.908Z,75.04
2017-05-07T07:59:53.666Z,73.81
2017-05-07T08:02:24.623Z,73.36
2017-05-07T08:04:55.495Z,72.75
2017-05-07T08:07:26.531Z,69.93
2017-05-07T08:09:57.357Z,71.56
2017-05-07T08:12:28.302Z,70.86
2017-05-07T08:14:59.133Z,70.42
2017-05-07T08:17:30.017Z,69.88
2017-05-07T08:20:00.843Z,69.72
2017-05-07T08:22:31.709Z,69.15
2017-05-07T08:25:02.533Z,69.34
2017-05-07T08:27:33.384Z,69.41
2017-05-07T08:30:04.244Z,69.24
2017-05-07T08:32:35.172Z,69.68
2017-05-07T08:35:06.006Z,68.64
2017-05-07T08:37:37.026Z,68.81
2017-05-07T08:40:07.905Z,69.60
2017-05-07T08:42:38.784Z,69.71
2017-05-07T08:45:09.616Z,68.93
2017-05-07T08:47:40.488Z,68.27
2017-05-07T08:50:11.308Z,68.30
2017-05-07T08:52:42.166Z,67.92
2017-05-07T08:55:12.984Z,67.39
2017-05-07T08:57:43.993Z,68.33
2017-05-07T09:00:14.859Z,68.06
2017-05-07T09:02:46.276Z,67.52
2017-05-07T09:05:17.978Z,68.62
2017-05-07T09:07:50.188Z,68.30
2017-05-07T09:10:22.225Z,67.36
2017-05-07T09:13:08.366Z,66.86
2017-05-07T09:16:00.489Z,68.25
2017-05-07T09:18:33.616Z,68.31
2017-05-07T09:21:06.588Z,67.88
2017-05-07T09:23:38.228Z,64.79
2017-05-07T09:26:09.994Z,66.02
2017-05-07T09:28:42.850Z,66.67
2017-05-07T09:31:16.538Z,67.20
2017-05-07T09:33:49.104Z,67.02
2017-05-07T09:36:21.992Z,66.81
2017-05-07T09:38:53.850Z,66.02
2017-05-07T09:41:25.627Z,67.33
2017-05-07T09:43:58.637Z,66.56
2017-05-07T09:46:30.079Z,66.53
2017-05-07T09:49:01.450Z,65.46
2017-05-07T09:51:34.040Z,66.07
2017-05-07T09:54:07.292Z,66.83
2017-05-07T09:56:41.169Z,66.86
2017-05-07T09:59:13.290Z,65.53
2017-05-07T10:01:45.593Z,64.79
2017-05-07T10:04:18.173Z,65.23
2017-05-07T10:06:50.217Z,64.48
2017-05-07T10:09:22.492Z,64.65
2017-05-07T10:11:53.713Z,65.78
2017-05-07T10:14:26.799Z,66.55
2017-05-07T10:16:58.522Z,64.95
2017-05-07T10:19:32.495Z,63.98
2017-05-07T10:22:05.407Z,64.42
2017-05-07T10:24:36.775Z,63.74
2017-05-07T10:27:09.196Z,62.91
2017-05-07T10:29:41.588Z,63.36
2017-05-07T10:32:13.945Z,62.84
2017-05-07T10:34:45.806Z,62.33
2017-05-07T10:37:18.367Z,62.43
2017-05-07T10:39:50.376Z,63.97
2017-05-07T10:42:22.535Z,64.81
2017-05-07T10:44:54.749Z,62.24
2017-05-07T10:47:28.234Z,60.97
2017-05-07T10:49:59.803Z,60.75
2017-05-07T10:52:31.796Z,61.11
2017-05-07T10:55:03.440Z,59.83
2017-05-07T10:57:36.476Z,59.22
2017-05-07T11:00:10.702Z,59.01
2017-05-07T11:02:43.798Z,58.87
2017-05-07T11:05:15.462Z,59.88
2017-05-07T11:07:46.475Z,58.60
2017-05-07T11:10:18.212Z,58.36
2017-05-07T11:12:49.120Z,59.00
2017-05-07T11:15:20.823Z,58.94
2017-05-07T11:17:52.644Z,59.25
2017-05-07T11:20:23.696Z,58.41
2017-05-07T11:22:54.800Z,57.66
2017-05-07T11:25:25.687Z,58.65
2017-05-07T11:27:56.636Z,58.33
2017-05-07T11:30:27.582Z,59.82
2017-05-07T11:32:58.434Z,60.90
2017-05-07T11:35:28.953Z,62.05
2017-05-07T11:37:59.804Z,61.93
2017-05-07T11:40:30.734Z,62.76
2017-05-07T11:43:01.577Z,64.55
2017-05-07T11:45:32.482Z,64.58
2017-05-07T11:48:03.306Z,65.30
2017-05-07T11:50:33.994Z,64.83
2017-05-07T11:53:05.805Z,64.64
2017-05-07T11:55:36.676Z,65.89
2017-05-07T11:58:07.495Z,64.78
2017-05-07T12:00:38.361Z,65.05
2017-05-07T12:03:09.201Z,63.65
2017-05-07T12:05:40.108Z,63.91
2017-05-07T12:08:10.924Z,64.47
2017-05-07T12:10:41.876Z,62.85
2017-05-07T12:13:12.718Z,62.84
2017-05-07T12:15:43.650Z,63.23
2017-05-07T12:18:14.496Z,63.23
2017-05-07T12:20:45.382Z,62.20
2017-05-07T12:23:16.229Z,61.95
2017-05-07T12:25:47.557Z,60.59
2017-05-07T12:28:18.393Z,60.62
2017-05-07T12:30:49.286Z,59.94
2017-05-07T12:33:20.139Z,59.05
2017-05-07T12:35:50.739Z,59.98
2017-05-07T12:38:21.586Z,60.17
2017-05-07T12:40:52.531Z,60.27
2017-05-07T12:43:23.371Z,59.08
2017-05-07T12:45:54.353Z,59.22
2017-05-07T12:48:25.235Z,59.11
2017-05-07T12:50:56.135Z,58.51
2017-05-07T12:53:27.087Z,59.60
2017-05-07T12:55:57.963Z,58.19
2017-05-07T12:58:28.788Z,59.49
2017-05-07T13:00:59.659Z,57.22
2017-05-07T13:03:30.490Z,57.82
2017-05-07T13:06:01.398Z,56.71
2017-05-07T13:08:32.391Z,56.87
2017-05-07T13:11:04.762Z,57.37
2017-05-07T13:13:35.614Z,57.69
2017-05-07T13:16:06.475Z,57.73
2017-05-07T13:18:37.677Z,57.36
2017-05-07T13:21:08.601Z,56.90
2017-05-07T13:23:39.429Z,58.73
2017-05-07T13:26:10.325Z,57.38
2017-05-07T13:28:41.164Z,57.57
2017-05-07T13:31:12.099Z,57.88
2017-05-07T13:33:44.566Z,58.06
2017-05-07T13:36:15.566Z,57.01
2017-05-07T13:38:46.414Z,56.69
2017-05-07T13:41:17.343Z,56.27
2017-05-07T13:43:48.184Z,55.96
2017-05-07T13:46:19.056Z,55.99
2017-05-07T13:48:49.890Z,56.27
2017-05-07T13:51:20.789Z,54.52
2017-05-07T13:53:51.822Z,53.84
2017-05-07T13:56:23.730Z,54.08
2017-05-07T13:58:54.762Z,53.82
2017-05-07T14:01:25.702Z,55.56
2017-05-07T14:03:56.685Z,56.24
2017-05-07T14:06:27.737Z,56.49
2017-05-07T14:08:58.576Z,56.25
2017-05-07T14:11:29.462Z,55.98
2017-05-07T14:14:00.344Z,55.94
2017-05-07T14:16:31.224Z,54.79
2017-05-07T14:19:02.069Z,54.87
2017-05-07T14:21:32.970Z,54.78
2017-05-07T14:24:03.880Z,55.09
2017-05-07T14:26:34.783Z,54.81
2017-05-07T14:29:05.614Z,54.75
2017-05-07T14:31:36.486Z,54.80
2017-05-07T14:34:07.369Z,55.13
2017-05-07T14:36:38.257Z,52.72
2017-05-07T14:39:09.219Z,52.98
2017-05-07T14:41:40.195Z,51.50
2017-05-07T14:44:11.038Z,49.60
2017-05-07T14:46:41.916Z,49.10
2017-05-07T14:49:14.185Z,51.13
2017-05-07T14:51:45.096Z,50.36
2017-05-07T14:54:15.977Z,51.47
2017-05-07T14:56:46.866Z,52.32
2017-05-07T14:59:17.734Z,52.33
2017-05-07T15:01:48.634Z,52.31
2017-05-07T15:04:19.488Z,51.65
2017-05-07T15:06:50.432Z,52.66
2017-05-07T15:09:21.322Z,53.10
2017-05-07T15:11:52.183Z,53.93
2017-05-07T15:14:23.101Z,53.70
2017-05-07T15:16:54.099Z,53.60
2017-05-07T15:19:25.004Z,53.07
2017-05-07T15:21:55.914Z,52.02
2017-05-07T15:24:26.806Z,52.09
2017-05-07T15:26:57.666Z,51.40
2017-05-07T15:29:28.543Z,52.32
2017-05-07T15:31:59.490Z,52.80
2017-05-07T15:34:30.349Z,52.87
2017-05-07T15:37:01.207Z,52.30
2017-05-07T15:39:32.093Z,52.32
2017-05-07T15:42:03.077Z,51.46
2017-05-07T15:44:33.945Z,51.46
2017-05-07T15:47:04.989Z,50.85
2017-05-07T15:49:36.559Z,51.20
2017-05-07T15:52:07.429Z,51.90
2017-05-07T15:54:38.289Z,50.80
2017-05-07T15:57:09.845Z,50.32
2017-05-07T15:59:40.665Z,50.16
2017-05-07T16:02:11.560Z,49.67
2017-05-07T16:04:42.397Z,50.29
2017-05-07T16:07:13.277Z,49.41
2017-05-07T16:09:44.131Z,48.73
2017-05-07T16:12:15.004Z,48.78
2017-05-07T16:14:45.842Z,49.48
2017-05-07T16:23:47.909Z,51.14
2017-05-07T16:26:26.831Z,51.88
2017-05-07T16:29:18.985Z,52.14
2017-05-07T16:31:49.304Z,52.31
2017-05-07T16:34:19.635Z,52.32
2017-05-07T16:36:49.913Z,52.72
2017-05-07T16:39:20.215Z,52.92
2017-05-07T16:41:50.538Z,53.44
2017-05-07T16:44:20.899Z,53.74
2017-05-07T16:46:51.235Z,53.92
2017-05-07T16:49:21.559Z,54.45
2017-05-07T16:51:51.923Z,54.35
2017-05-07T16:54:22.233Z,54.54
2017-05-07T16:56:52.547Z,54.90
2017-05-07T16:59:22.943Z,55.07
2017-05-07T17:01:53.187Z,54.95
2017-05-07T17:04:23.440Z,54.32
2017-05-07T17:06:59.235Z,55.07
2017-05-07T17:09:29.666Z,54.73
2017-05-07T17:11:59.952Z,53.89
2017-05-07T17:14:30.304Z,54.02
2017-05-07T17:17:00.608Z,53.50
2017-05-07T17:19:31.031Z,54.50
2017-05-07T17:22:01.310Z,54.36
2017-05-07T17:24:31.657Z,54.51
2017-05-07T17:27:02.356Z,54.48
2017-05-07T17:29:33.553Z,55.03
2017-05-07T17:32:04.621Z,55.05
2017-05-07T17:34:35.863Z,55.38
2017-05-07T17:37:07.055Z,55.94
2017-05-07T17:39:37.981Z,56.15
2017-05-07T17:42:08.790Z,56.47
2017-05-07T17:44:39.645Z,56.98
2017-05-07T17:47:10.061Z,57.23
2017-05-07T17:49:40.889Z,56.74
2017-05-07T17:52:11.654Z,56.75
2017-05-07T17:54:42.599Z,57.46
2017-05-07T17:57:13.365Z,57.74
2017-05-07T17:59:44.211Z,58.14
2017-05-07T18:02:14.975Z,57.66
2017-05-07T18:04:45.796Z,58.07
2017-05-07T18:07:16.614Z,58.32
2017-05-07T18:09:47.824Z,58.91
2017-05-07T18:12:19.667Z,59.31
2017-05-07T18:14:50.792Z,59.57
2017-05-07T18:17:21.608Z,60.02
2017-05-07T18:19:52.441Z,60.21
2017-05-07T18:22:23.208Z,60.19
2017-05-07T18:24:54.186Z,60.79
2017-05-07T18:27:24.981Z,60.99
2017-05-07T18:29:55.822Z,60.80
2017-05-07T18:32:29.460Z,61.09
2017-05-07T18:35:01.814Z,61.35
2017-05-07T18:37:32.630Z,61.70
2017-05-07T18:40:03.490Z,61.63
2017-05-07T18:42:34.680Z,61.62
2017-05-07T18:45:05.564Z,62.18
2017-05-07T18:47:36.326Z,62.30
2017-05-07T18:50:07.686Z,62.59
2017-05-07T18:52:40.744Z,62.98
2017-05-07T18:55:11.753Z,63.24
2017-05-07T18:57:42.939Z,63.42
2017-05-07T19:00:14.595Z,63.69
2017-05-07T19:02:45.610Z,63.76
2017-05-07T19:05:17.865Z,63.42
2017-05-07T19:07:49.212Z,63.25
2017-05-07T19:10:20.215Z,62.74
2017-05-07T19:12:53.142Z,63.50
2017-05-07T19:15:24.988Z,63.53
2017-05-07T19:17:57.317Z,63.35
2017-05-07T19:20:28.745Z,63.78
2017-05-07T19:23:01.064Z,63.79
2017-05-07T19:25:33.093Z,64.07
2017-05-07T19:28:04.428Z,64.30
2017-05-07T19:30:36.757Z,64.25
2017-05-07T19:33:09.044Z,64.06
2017-05-07T19:35:40.623Z,63.92
2017-05-07T19:38:11.889Z,63.88
2017-05-07T19:40:43.372Z,64.20
2017-05-07T19:43:14.748Z,64.53
2017-05-07T19:45:45.940Z,64.70
2017-05-07T19:48:17.181Z,64.50
2017-05-07T19:50:48.736Z,64.45
2017-05-07T19:53:19.562Z,64.28
2017-05-07T19:55:50.842Z,64.16
2017-05-07T19:58:21.637Z,64.00
2017-05-07T20:00:52.796Z,63.96
2017-05-07T20:03:23.784Z,63.98
2017-05-07T20:05:54.647Z,64.20
2017-05-07T20:08:25.582Z,64.34
2017-05-07T20:10:56.511Z,64.15
2017-05-07T20:13:30.283Z,64.19
2017-05-07T20:16:02.596Z,64.23
2017-05-07T20:18:33.366Z,64.14
2017-05-07T20:21:04.210Z,64.51
2017-05-07T20:23:35.039Z,64.61
2017-05-07T20:26:05.850Z,64.94
2017-05-07T20:28:36.628Z,65.05
2017-05-07T20:31:07.519Z,65.24
2017-05-07T20:33:38.285Z,65.56
2017-05-07T20:36:09.713Z,65.92
2017-05-07T20:38:40.483Z,65.92
2017-05-07T20:41:11.353Z,65.84
2017-05-07T20:43:42.131Z,65.87
2017-05-07T20:46:12.954Z,66.05
2017-05-07T20:48:43.752Z,65.88
2017-05-07T20:51:14.687Z,65.86
2017-05-07T20:53:45.474Z,65.87
2017-05-07T20:56:16.305Z,66.03
2017-05-07T20:58:47.107Z,66.09
2017-05-07T21:01:17.955Z,66.31
2017-05-07T21:03:48.795Z,66.37
2017-05-07T21:08:48.751Z,66.38
2017-05-07T21:11:19.599Z,66.53
2017-05-07T21:13:50.429Z,66.62
2017-05-07T21:16:21.265Z,66.61
2017-05-07T21:18:52.084Z,66.68
2017-05-07T21:21:22.969Z,66.71
2017-05-07T21:23:53.742Z,66.62
2017-05-07T21:26:24.569Z,66.76
2017-05-07T21:28:55.382Z,67.11
2017-05-07T21:31:26.307Z,66.96
2017-05-07T21:33:57.154Z,67.22
2017-05-07T21:36:28.044Z,67.15
2017-05-07T21:38:58.840Z,67.48
2017-05-07T21:41:29.683Z,67.46
2017-05-07T21:44:00.496Z,67.75
2017-05-07T21:46:31.357Z,67.74
2017-05-07T21:49:02.155Z,67.82
2017-05-07T21:51:33.007Z,67.94
2017-05-07T21:54:03.847Z,68.43
2017-05-07T21:56:34.721Z,68.92
2017-05-07T21:59:05.555Z,69.22
2017-05-07T22:01:36.456Z,69.51
2017-05-07T22:04:07.243Z,69.86
2017-05-07T22:06:38.063Z,70.15
2017-05-07T22:09:08.902Z,70.09
2017-05-07T22:11:40.635Z,70.53
2017-05-07T22:14:11.415Z,71.03
2017-05-07T22:16:42.211Z,71.56
2017-05-07T22:19:13.008Z,72.32
2017-05-07T22:21:43.907Z,72.91
2017-05-07T22:24:14.869Z,73.47
2017-05-07T22:26:45.669Z,74.44
2017-05-07T22:29:16.459Z,76.11
2017-05-07T22:31:47.300Z,76.88
2017-05-07T22:34:18.089Z,77.81
2017-05-07T22:36:48.910Z,77.85
2017-05-07T22:39:20.658Z,78.23
2017-05-07T22:41:51.502Z,78.59
2017-05-07T22:44:22.310Z,77.69
2017-05-07T22:46:53.208Z,77.96
2017-05-07T22:49:23.986Z,77.04
2017-05-07T22:51:54.855Z,76.48
2017-05-07T22:54:25.695Z,76.60
2017-05-07T22:56:56.593Z,76.42
2017-05-07T22:59:28.035Z,76.65
2017-05-07T23:01:58.873Z,76.95
2017-05-07T23:04:29.653Z,76.97
2017-05-07T23:07:00.471Z,77.59
2017-05-07T23:09:31.275Z,77.76
2017-05-07T23:12:02.982Z,77.75
2017-05-07T23:14:33.819Z,77.88
2017-05-07T23:17:04.630Z,78.87
2017-05-07T23:19:35.415Z,78.71
2017-05-07T23:22:06.260Z,78.61
2017-05-07T23:24:37.059Z,78.83
2017-05-07T23:27:07.907Z,79.79
2017-05-07T23:29:38.726Z,80.15
2017-05-07T23:32:09.691Z,79.52
2017-05-07T23:34:40.477Z,80.01
2017-05-07T23:37:11.351Z,79.93
2017-05-07T23:39:42.143Z,80.07
2017-05-07T23:42:12.986Z,79.84
2017-05-07T23:44:43.850Z,79.38
2017-05-07T23:47:14.699Z,79.28
2017-05-07T23:49:45.502Z,79.35
2017-05-07T23:52:16.413Z,79.17
2017-05-07T23:54:47.193Z,79.00
2017-05-07T23:57:18.148Z,79.23
2017-05-07T23:59:48.916Z,78.79
